Conselheiro Pena, Brazil
Current Conditions -  °F | °C
As of 2:00 PM on Saturday 25 Oct 2014 (Local Time) from SBIP Reporting Station
Broken Clouds Broken Clouds  
Wind Chill: 84°   Ceiling: 8000
Heat Index: 84°   Visibility: 6mi
Dew Point: 59°   Wind: 7mph
Humidity: 42%   Direction: 30°NNE
Pressure: 29.91"   Gusts: NA
Location:  19.17°S, 41.47°W
Report Text: SBIP 251600Z 03006KT 9999 FEW040 BKN080 29/15 Q1013
Loading
Personal Weather Stations






























Interactive Weather Map
Tropical Storm Tracking
New forecast layout! Learn more

10-Day Weather Forecast

Advertisements
Track Severe Weather on mobile